sensor_id;sensor_type;location;lat;lon;timestamp;temperature;humidity
8231;DHT22;4156;50.908;6.974;2023-02-03T00:02:17;10.40;99.90
8231;DHT22;4156;50.908;6.974;2023-02-03T00:04:42;10.40;99.90
8231;DHT22;4156;50.908;6.974;2023-02-03T00:07:13;10.40;99.90
8231;DHT22;4156;50.908;6.974;2023-02-03T00:09:39;10.40;99.90
8231;DHT22;4156;50.908;6.974;2023-02-03T00:12:05;10.40;99.90
8231;DHT22;4156;50.908;6.974;2023-02-03T00:14:31;10.40;99.90
8231;DHT22;4156;50.908;6.974;2023-02-03T00:16:58;10.40;99.90
8231;DHT22;4156;50.908;6.974;2023-02-03T00:19:23;10.40;99.90
8231;DHT22;4156;50.908;6.974;2023-02-03T00:21:49;10.50;99.90
8231;DHT22;4156;50.908;6.974;2023-02-03T00:24:14;10.40;99.90
8231;DHT22;4156;50.908;6.974;2023-02-03T00:26:43;10.50;99.90
8231;DHT22;4156;50.908;6.974;2023-02-03T00:29:09;10.40;99.90
8231;DHT22;4156;50.908;6.974;2023-02-03T00:31:34;10.40;99.90
8231;DHT22;4156;50.908;6.974;2023-02-03T00:34:00;10.50;99.90
8231;DHT22;4156;50.908;6.974;2023-02-03T00:36:26;10.50;99.90
8231;DHT22;4156;50.908;6.974;2023-02-03T00:38:52;10.50;99.90
8231;DHT22;4156;50.908;6.974;2023-02-03T00:41:19;10.50;99.90
8231;DHT22;4156;50.908;6.974;2023-02-03T00:43:45;10.50;99.90
8231;DHT22;4156;50.908;6.974;2023-02-03T00:46:10;10.50;99.90
8231;DHT22;4156;50.908;6.974;2023-02-03T00:48:36;10.50;99.90
8231;DHT22;4156;50.908;6.974;2023-02-03T00:51:01;10.50;99.90
8231;DHT22;4156;50.908;6.974;2023-02-03T00:53:27;10.50;99.90
8231;DHT22;4156;50.908;6.974;2023-02-03T00:55:52;10.50;99.90
8231;DHT22;4156;50.908;6.974;2023-02-03T00:58:18;10.50;99.90
8231;DHT22;4156;50.908;6.974;2023-02-03T01:00:43;10.50;99.90
8231;DHT22;4156;50.908;6.974;2023-02-03T01:03:09;10.50;99.90
8231;DHT22;4156;50.908;6.974;2023-02-03T01:05:35;10.50;99.90
8231;DHT22;4156;50.908;6.974;2023-02-03T01:08:01;10.50;99.90
8231;DHT22;4156;50.908;6.974;2023-02-03T01:10:27;10.50;99.90
8231;DHT22;4156;50.908;6.974;2023-02-03T01:12:52;10.50;99.90
8231;DHT22;4156;50.908;6.974;2023-02-03T01:15:18;10.50;99.90
8231;DHT22;4156;50.908;6.974;2023-02-03T01:17:43;10.50;99.90
8231;DHT22;4156;50.908;6.974;2023-02-03T01:20:09;10.50;99.90
8231;DHT22;4156;50.908;6.974;2023-02-03T01:22:37;10.50;99.90
8231;DHT22;4156;50.908;6.974;2023-02-03T01:25:03;10.50;99.90
8231;DHT22;4156;50.908;6.974;2023-02-03T01:27:31;10.50;99.90
8231;DHT22;4156;50.908;6.974;2023-02-03T01:29:56;10.50;99.90
8231;DHT22;4156;50.908;6.974;2023-02-03T01:32:22;10.50;99.90
8231;DHT22;4156;50.908;6.974;2023-02-03T01:34:47;10.50;99.90
8231;DHT22;4156;50.908;6.974;2023-02-03T01:37:13;10.50;99.90
8231;DHT22;4156;50.908;6.974;2023-02-03T01:39:41;10.50;99.90
8231;DHT22;4156;50.908;6.974;2023-02-03T01:42:08;10.50;99.90
8231;DHT22;4156;50.908;6.974;2023-02-03T01:44:40;10.50;99.90
8231;DHT22;4156;50.908;6.974;2023-02-03T01:47:32;10.50;99.90
8231;DHT22;4156;50.908;6.974;2023-02-03T01:52:31;10.50;99.90
8231;DHT22;4156;50.908;6.974;2023-02-03T01:54:59;10.50;99.90
8231;DHT22;4156;50.908;6.974;2023-02-03T02:00:32;10.50;99.90
8231;DHT22;4156;50.908;6.974;2023-02-03T02:02:59;10.50;99.90
8231;DHT22;4156;50.908;6.974;2023-02-03T02:05:45;10.50;99.90
8231;DHT22;4156;50.908;6.974;2023-02-03T02:08:12;10.50;99.90
8231;DHT22;4156;50.908;6.974;2023-02-03T02:10:39;10.50;99.90
8231;DHT22;4156;50.908;6.974;2023-02-03T02:13:05;10.50;99.90
8231;DHT22;4156;50.908;6.974;2023-02-03T02:15:42;10.50;99.90
8231;DHT22;4156;50.908;6.974;2023-02-03T02:18:27;10.50;99.90
8231;DHT22;4156;50.908;6.974;2023-02-03T02:21:15;10.50;99.90
8231;DHT22;4156;50.908;6.974;2023-02-03T02:23:58;10.50;99.90
8231;DHT22;4156;50.908;6.974;2023-02-03T02:29:41;10.50;99.90
8231;DHT22;4156;50.908;6.974;2023-02-03T02:35:17;10.50;99.90
8231;DHT22;4156;50.908;6.974;2023-02-03T02:37:58;10.50;99.90
8231;DHT22;4156;50.908;6.974;2023-02-03T02:43:10;10.50;99.90
8231;DHT22;4156;50.908;6.974;2023-02-03T02:45:53;10.50;99.90
8231;DHT22;4156;50.908;6.974;2023-02-03T02:48:26;10.50;99.90
8231;DHT22;4156;50.908;6.974;2023-02-03T02:50:55;10.50;99.90
8231;DHT22;4156;50.908;6.974;2023-02-03T02:53:24;10.50;99.90
8231;DHT22;4156;50.908;6.974;2023-02-03T02:55:52;10.50;99.90
8231;DHT22;4156;50.908;6.974;2023-02-03T02:58:19;10.50;99.90
8231;DHT22;4156;50.908;6.974;2023-02-03T03:00:46;10.60;99.90
8231;DHT22;4156;50.908;6.974;2023-02-03T03:03:18;10.50;99.90
8231;DHT22;4156;50.908;6.974;2023-02-03T03:05:50;10.50;99.90
8231;DHT22;4156;50.908;6.974;2023-02-03T03:08:17;10.50;99.90
8231;DHT22;4156;50.908;6.974;2023-02-03T03:10:45;10.50;99.90
8231;DHT22;4156;50.908;6.974;2023-02-03T03:13:15;10.50;99.90
8231;DHT22;4156;50.908;6.974;2023-02-03T03:15:44;10.50;99.90
8231;DHT22;4156;50.908;6.974;2023-02-03T03:18:20;10.50;99.90
8231;DHT22;4156;50.908;6.974;2023-02-03T03:20:49;10.50;99.90
8231;DHT22;4156;50.908;6.974;2023-02-03T03:23:26;10.50;99.90
8231;DHT22;4156;50.908;6.974;2023-02-03T03:25:59;10.50;99.90
8231;DHT22;4156;50.908;6.974;2023-02-03T03:28:34;10.50;99.90
8231;DHT22;4156;50.908;6.974;2023-02-03T03:31:03;10.50;99.90
8231;DHT22;4156;50.908;6.974;2023-02-03T03:33:28;10.50;99.90
8231;DHT22;4156;50.908;6.974;2023-02-03T03:36:17;10.50;99.90
8231;DHT22;4156;50.908;6.974;2023-02-03T03:38:51;10.50;99.90
8231;DHT22;4156;50.908;6.974;2023-02-03T03:43:58;10.50;99.90
8231;DHT22;4156;50.908;6.974;2023-02-03T03:46:34;10.50;99.90
8231;DHT22;4156;50.908;6.974;2023-02-03T03:49:04;10.50;99.90
8231;DHT22;4156;50.908;6.974;2023-02-03T03:51:39;10.50;99.90
8231;DHT22;4156;50.908;6.974;2023-02-03T03:54:08;10.50;99.90
8231;DHT22;4156;50.908;6.974;2023-02-03T03:56:44;10.50;99.90
8231;DHT22;4156;50.908;6.974;2023-02-03T03:59:13;10.50;99.90
8231;DHT22;4156;50.908;6.974;2023-02-03T04:01:41;10.60;99.90
8231;DHT22;4156;50.908;6.974;2023-02-03T04:04:09;10.60;99.90
8231;DHT22;4156;50.908;6.974;2023-02-03T04:06:37;10.60;99.90
8231;DHT22;4156;50.908;6.974;2023-02-03T04:09:03;10.60;99.90
8231;DHT22;4156;50.908;6.974;2023-02-03T04:11:29;10.60;99.90
8231;DHT22;4156;50.908;6.974;2023-02-03T04:14:14;10.50;99.90
8231;DHT22;4156;50.908;6.974;2023-02-03T04:16:39;10.60;99.90
8231;DHT22;4156;50.908;6.974;2023-02-03T04:19:05;10.60;99.90
8231;DHT22;4156;50.908;6.974;2023-02-03T04:21:30;10.60;99.90
8231;DHT22;4156;50.908;6.974;2023-02-03T04:23:56;10.60;99.90
8231;DHT22;4156;50.908;6.974;2023-02-03T04:26:22;10.60;99.90
8231;DHT22;4156;50.908;6.974;2023-02-03T04:28:47;10.60;99.90
8231;DHT22;4156;50.908;6.974;2023-02-03T04:31:13;10.60;99.90
8231;DHT22;4156;50.908;6.974;2023-02-03T04:33:38;10.60;99.90
8231;DHT22;4156;50.908;6.974;2023-02-03T04:36:04;10.60;99.90
8231;DHT22;4156;50.908;6.974;2023-02-03T04:38:30;10.60;99.90
8231;DHT22;4156;50.908;6.974;2023-02-03T04:40:55;10.60;99.90
8231;DHT22;4156;50.908;6.974;2023-02-03T04:43:21;10.60;99.90
8231;DHT22;4156;50.908;6.974;2023-02-03T04:45:46;10.60;99.90
8231;DHT22;4156;50.908;6.974;2023-02-03T04:48:12;10.60;99.90
8231;DHT22;4156;50.908;6.974;2023-02-03T04:50:37;10.60;99.90
8231;DHT22;4156;50.908;6.974;2023-02-03T04:53:03;10.60;99.90
8231;DHT22;4156;50.908;6.974;2023-02-03T04:55:28;10.50;99.90
8231;DHT22;4156;50.908;6.974;2023-02-03T04:57:58;10.60;99.90
8231;DHT22;4156;50.908;6.974;2023-02-03T05:00:24;10.60;99.90
8231;DHT22;4156;50.908;6.974;2023-02-03T05:02:50;10.60;99.90
8231;DHT22;4156;50.908;6.974;2023-02-03T05:05:16;10.60;99.90
8231;DHT22;4156;50.908;6.974;2023-02-03T05:07:41;10.60;99.90
8231;DHT22;4156;50.908;6.974;2023-02-03T05:10:07;10.60;99.90
8231;DHT22;4156;50.908;6.974;2023-02-03T05:12:33;10.60;99.90
8231;DHT22;4156;50.908;6.974;2023-02-03T05:14:58;10.60;99.90
8231;DHT22;4156;50.908;6.974;2023-02-03T05:17:24;10.60;99.90
8231;DHT22;4156;50.908;6.974;2023-02-03T05:19:49;10.60;99.90
8231;DHT22;4156;50.908;6.974;2023-02-03T05:22:15;10.60;99.90
8231;DHT22;4156;50.908;6.974;2023-02-03T05:24:40;10.60;99.90
8231;DHT22;4156;50.908;6.974;2023-02-03T05:27:06;10.60;99.90
8231;DHT22;4156;50.908;6.974;2023-02-03T05:29:31;10.60;99.90
8231;DHT22;4156;50.908;6.974;2023-02-03T05:31:57;10.60;99.90
8231;DHT22;4156;50.908;6.974;2023-02-03T05:34:23;10.60;99.90
8231;DHT22;4156;50.908;6.974;2023-02-03T05:36:48;10.60;99.90
8231;DHT22;4156;50.908;6.974;2023-02-03T05:39:14;10.60;99.90
8231;DHT22;4156;50.908;6.974;2023-02-03T05:41:39;10.60;99.90
8231;DHT22;4156;50.908;6.974;2023-02-03T05:44:21;10.60;99.90
8231;DHT22;4156;50.908;6.974;2023-02-03T05:46:47;10.60;99.90
8231;DHT22;4156;50.908;6.974;2023-02-03T05:49:13;10.60;99.90
8231;DHT22;4156;50.908;6.974;2023-02-03T05:51:39;10.60;99.90
8231;DHT22;4156;50.908;6.974;2023-02-03T05:54:05;10.60;99.90
8231;DHT22;4156;50.908;6.974;2023-02-03T05:56:31;10.60;99.90
8231;DHT22;4156;50.908;6.974;2023-02-03T05:58:57;10.60;99.90
8231;DHT22;4156;50.908;6.974;2023-02-03T06:01:22;10.60;99.90
8231;DHT22;4156;50.908;6.974;2023-02-03T06:03:48;10.60;99.90
8231;DHT22;4156;50.908;6.974;2023-02-03T06:06:14;10.60;99.90
8231;DHT22;4156;50.908;6.974;2023-02-03T06:08:40;10.60;99.90
8231;DHT22;4156;50.908;6.974;2023-02-03T06:11:06;10.60;99.90
8231;DHT22;4156;50.908;6.974;2023-02-03T06:13:31;10.60;99.90
8231;DHT22;4156;50.908;6.974;2023-02-03T06:15:57;10.60;99.90
8231;DHT22;4156;50.908;6.974;2023-02-03T06:18:22;10.60;99.90
8231;DHT22;4156;50.908;6.974;2023-02-03T06:20:49;10.60;99.90
8231;DHT22;4156;50.908;6.974;2023-02-03T06:23:14;10.60;99.90
8231;DHT22;4156;50.908;6.974;2023-02-03T06:25:42;10.60;99.90
8231;DHT22;4156;50.908;6.974;2023-02-03T06:28:07;10.60;99.90
8231;DHT22;4156;50.908;6.974;2023-02-03T06:30:33;10.60;99.90
8231;DHT22;4156;50.908;6.974;2023-02-03T06:32:59;10.60;99.90
8231;DHT22;4156;50.908;6.974;2023-02-03T06:35:24;10.60;99.90
8231;DHT22;4156;50.908;6.974;2023-02-03T06:37:50;10.60;99.90
8231;DHT22;4156;50.908;6.974;2023-02-03T06:40:15;10.60;99.90
8231;DHT22;4156;50.908;6.974;2023-02-03T06:42:44;10.60;99.90
8231;DHT22;4156;50.908;6.974;2023-02-03T06:45:11;10.60;99.90
8231;DHT22;4156;50.908;6.974;2023-02-03T06:47:39;10.60;99.90
8231;DHT22;4156;50.908;6.974;2023-02-03T06:50:05;10.60;99.90
8231;DHT22;4156;50.908;6.974;2023-02-03T06:52:30;10.60;99.90
8231;DHT22;4156;50.908;6.974;2023-02-03T06:54:56;10.60;99.90
8231;DHT22;4156;50.908;6.974;2023-02-03T06:57:21;10.60;99.90
8231;DHT22;4156;50.908;6.974;2023-02-03T06:59:47;10.60;99.90
8231;DHT22;4156;50.908;6.974;2023-02-03T07:02:12;10.60;99.90
8231;DHT22;4156;50.908;6.974;2023-02-03T07:04:38;10.60;99.90
8231;DHT22;4156;50.908;6.974;2023-02-03T07:07:04;10.60;99.90
8231;DHT22;4156;50.908;6.974;2023-02-03T07:09:29;10.60;99.90
8231;DHT22;4156;50.908;6.974;2023-02-03T07:11:55;10.60;99.90
8231;DHT22;4156;50.908;6.974;2023-02-03T07:14:20;10.60;99.90
8231;DHT22;4156;50.908;6.974;2023-02-03T07:16:46;10.60;99.90
8231;DHT22;4156;50.908;6.974;2023-02-03T07:19:11;10.60;99.90
8231;DHT22;4156;50.908;6.974;2023-02-03T07:21:37;10.60;99.90
8231;DHT22;4156;50.908;6.974;2023-02-03T07:24:03;10.60;99.90
8231;DHT22;4156;50.908;6.974;2023-02-03T07:26:28;10.70;99.90
8231;DHT22;4156;50.908;6.974;2023-02-03T07:28:54;10.60;99.90
8231;DHT22;4156;50.908;6.974;2023-02-03T07:31:20;10.70;99.90
8231;DHT22;4156;50.908;6.974;2023-02-03T07:33:45;10.70;99.90
8231;DHT22;4156;50.908;6.974;2023-02-03T07:36:11;10.70;99.90
8231;DHT22;4156;50.908;6.974;2023-02-03T07:38:37;10.70;99.90
8231;DHT22;4156;50.908;6.974;2023-02-03T07:41:03;10.70;99.90
8231;DHT22;4156;50.908;6.974;2023-02-03T07:43:29;10.70;99.90
8231;DHT22;4156;50.908;6.974;2023-02-03T07:45:54;10.70;99.90
8231;DHT22;4156;50.908;6.974;2023-02-03T07:48:20;10.70;99.90
8231;DHT22;4156;50.908;6.974;2023-02-03T07:50:47;10.70;99.90
8231;DHT22;4156;50.908;6.974;2023-02-03T07:53:13;10.70;99.90
8231;DHT22;4156;50.908;6.974;2023-02-03T07:55:38;10.70;99.90
8231;DHT22;4156;50.908;6.974;2023-02-03T07:58:04;10.70;99.90
8231;DHT22;4156;50.908;6.974;2023-02-03T08:00:30;10.70;99.90
8231;DHT22;4156;50.908;6.974;2023-02-03T08:02:56;10.70;99.90
8231;DHT22;4156;50.908;6.974;2023-02-03T08:05:21;10.70;99.90
8231;DHT22;4156;50.908;6.974;2023-02-03T08:07:47;10.70;99.90
8231;DHT22;4156;50.908;6.974;2023-02-03T08:10:13;10.70;99.90
8231;DHT22;4156;50.908;6.974;2023-02-03T08:12:40;10.70;99.90
8231;DHT22;4156;50.908;6.974;2023-02-03T08:15:07;10.70;99.90
8231;DHT22;4156;50.908;6.974;2023-02-03T08:17:33;10.70;99.90
8231;DHT22;4156;50.908;6.974;2023-02-03T08:19:59;10.70;99.90
8231;DHT22;4156;50.908;6.974;2023-02-03T08:22:25;10.70;99.90
8231;DHT22;4156;50.908;6.974;2023-02-03T08:24:50;10.70;99.90
8231;DHT22;4156;50.908;6.974;2023-02-03T08:27:21;10.70;99.90
8231;DHT22;4156;50.908;6.974;2023-02-03T08:29:47;10.70;99.90
8231;DHT22;4156;50.908;6.974;2023-02-03T08:32:15;10.70;99.90
8231;DHT22;4156;50.908;6.974;2023-02-03T08:34:42;10.70;99.90
8231;DHT22;4156;50.908;6.974;2023-02-03T08:37:09;10.70;99.90
8231;DHT22;4156;50.908;6.974;2023-02-03T08:39:34;10.70;99.90
8231;DHT22;4156;50.908;6.974;2023-02-03T08:42:00;10.70;99.90
8231;DHT22;4156;50.908;6.974;2023-02-03T08:44:28;10.70;99.90
8231;DHT22;4156;50.908;6.974;2023-02-03T08:46:54;10.70;99.90
8231;DHT22;4156;50.908;6.974;2023-02-03T08:49:20;10.70;99.90
8231;DHT22;4156;50.908;6.974;2023-02-03T08:51:46;10.70;99.90
8231;DHT22;4156;50.908;6.974;2023-02-03T08:54:13;10.80;99.90
8231;DHT22;4156;50.908;6.974;2023-02-03T08:56:39;10.80;99.90
8231;DHT22;4156;50.908;6.974;2023-02-03T08:59:04;10.80;99.90
8231;DHT22;4156;50.908;6.974;2023-02-03T09:01:30;10.80;99.90
8231;DHT22;4156;50.908;6.974;2023-02-03T09:03:56;10.80;99.90
8231;DHT22;4156;50.908;6.974;2023-02-03T09:06:22;10.70;99.90
8231;DHT22;4156;50.908;6.974;2023-02-03T09:08:47;10.70;99.90
8231;DHT22;4156;50.908;6.974;2023-02-03T09:11:15;10.70;99.90
8231;DHT22;4156;50.908;6.974;2023-02-03T09:13:41;10.70;99.90
8231;DHT22;4156;50.908;6.974;2023-02-03T09:16:11;10.70;99.90
8231;DHT22;4156;50.908;6.974;2023-02-03T09:18:36;10.70;99.90
8231;DHT22;4156;50.908;6.974;2023-02-03T09:21:06;10.70;99.90
8231;DHT22;4156;50.908;6.974;2023-02-03T09:23:32;10.70;99.90
8231;DHT22;4156;50.908;6.974;2023-02-03T09:26:06;10.70;99.90
8231;DHT22;4156;50.908;6.974;2023-02-03T09:28:32;10.80;99.90
8231;DHT22;4156;50.908;6.974;2023-02-03T09:31:09;10.70;99.90
8231;DHT22;4156;50.908;6.974;2023-02-03T09:33:35;10.70;99.90
8231;DHT22;4156;50.908;6.974;2023-02-03T09:36:02;10.70;99.90
8231;DHT22;4156;50.908;6.974;2023-02-03T09:38:28;10.70;99.90
8231;DHT22;4156;50.908;6.974;2023-02-03T09:40:57;10.70;99.90
8231;DHT22;4156;50.908;6.974;2023-02-03T09:46:16;10.80;99.90
8231;DHT22;4156;50.908;6.974;2023-02-03T09:48:47;10.70;99.90
8231;DHT22;4156;50.908;6.974;2023-02-03T09:51:31;10.80;99.90
8231;DHT22;4156;50.908;6.974;2023-02-03T09:54:11;10.70;99.90
8231;DHT22;4156;50.908;6.974;2023-02-03T09:56:39;10.70;99.90
8231;DHT22;4156;50.908;6.974;2023-02-03T09:59:08;10.80;99.90
8231;DHT22;4156;50.908;6.974;2023-02-03T10:01:59;10.80;99.90
8231;DHT22;4156;50.908;6.974;2023-02-03T10:04:36;10.70;99.90
8231;DHT22;4156;50.908;6.974;2023-02-03T10:12:52;10.70;99.90
8231;DHT22;4156;50.908;6.974;2023-02-03T10:18:27;10.70;99.90
8231;DHT22;4156;50.908;6.974;2023-02-03T10:20:59;10.70;99.90
8231;DHT22;4156;50.908;6.974;2023-02-03T10:23:32;10.70;99.90
8231;DHT22;4156;50.908;6.974;2023-02-03T10:26:02;10.70;99.90
8231;DHT22;4156;50.908;6.974;2023-02-03T10:28:31;10.70;99.90
8231;DHT22;4156;50.908;6.974;2023-02-03T10:31:01;10.70;99.90
8231;DHT22;4156;50.908;6.974;2023-02-03T10:33:32;10.70;99.90
8231;DHT22;4156;50.908;6.974;2023-02-03T10:41:11;10.70;99.90
8231;DHT22;4156;50.908;6.974;2023-02-03T10:43:37;10.70;99.90
8231;DHT22;4156;50.908;6.974;2023-02-03T10:46:13;10.70;99.90
8231;DHT22;4156;50.908;6.974;2023-02-03T10:48:39;10.70;99.90
8231;DHT22;4156;50.908;6.974;2023-02-03T10:51:14;10.70;99.90
8231;DHT22;4156;50.908;6.974;2023-02-03T10:53:42;10.70;99.90
8231;DHT22;4156;50.908;6.974;2023-02-03T10:56:13;10.70;99.90
8231;DHT22;4156;50.908;6.974;2023-02-03T10:58:47;10.70;99.90
8231;DHT22;4156;50.908;6.974;2023-02-03T11:01:16;10.70;99.90
8231;DHT22;4156;50.908;6.974;2023-02-03T11:03:44;10.70;99.90
8231;DHT22;4156;50.908;6.974;2023-02-03T11:06:17;10.70;99.90
8231;DHT22;4156;50.908;6.974;2023-02-03T11:08:48;10.70;99.90
8231;DHT22;4156;50.908;6.974;2023-02-03T11:11:29;10.70;99.90
8231;DHT22;4156;50.908;6.974;2023-02-03T11:16:31;10.70;99.90
8231;DHT22;4156;50.908;6.974;2023-02-03T11:21:23;10.70;99.90
8231;DHT22;4156;50.908;6.974;2023-02-03T11:23:56;10.70;99.90
8231;DHT22;4156;50.908;6.974;2023-02-03T11:26:26;10.70;99.90
8231;DHT22;4156;50.908;6.974;2023-02-03T11:28:55;10.70;99.90
8231;DHT22;4156;50.908;6.974;2023-02-03T11:31:24;10.70;99.90
8231;DHT22;4156;50.908;6.974;2023-02-03T11:33:57;10.70;99.90
8231;DHT22;4156;50.908;6.974;2023-02-03T11:36:29;10.70;99.90
8231;DHT22;4156;50.908;6.974;2023-02-03T11:39:28;10.70;99.90
8231;DHT22;4156;50.908;6.974;2023-02-03T11:41:54;10.70;99.90
8231;DHT22;4156;50.908;6.974;2023-02-03T11:44:25;10.70;99.90
8231;DHT22;4156;50.908;6.974;2023-02-03T11:47:08;10.80;99.90
8231;DHT22;4156;50.908;6.974;2023-02-03T11:50:02;10.80;99.90
8231;DHT22;4156;50.908;6.974;2023-02-03T11:55:39;10.70;99.90
8231;DHT22;4156;50.908;6.974;2023-02-03T12:07:02;10.80;99.90
8231;DHT22;4156;50.908;6.974;2023-02-03T12:10:02;10.80;99.90
8231;DHT22;4156;50.908;6.974;2023-02-03T12:15:18;10.80;99.90
8231;DHT22;4156;50.908;6.974;2023-02-03T12:23:47;10.80;99.90
8231;DHT22;4156;50.908;6.974;2023-02-03T12:26:21;10.80;99.90
8231;DHT22;4156;50.908;6.974;2023-02-03T12:29:01;10.80;99.90
8231;DHT22;4156;50.908;6.974;2023-02-03T12:31:35;10.80;99.90
8231;DHT22;4156;50.908;6.974;2023-02-03T12:36:54;10.80;99.90
8231;DHT22;4156;50.908;6.974;2023-02-03T12:39:40;10.80;99.90
8231;DHT22;4156;50.908;6.974;2023-02-03T12:42:21;10.80;99.90
8231;DHT22;4156;50.908;6.974;2023-02-03T12:44:53;10.90;99.90
8231;DHT22;4156;50.908;6.974;2023-02-03T12:49:55;10.90;99.90
8231;DHT22;4156;50.908;6.974;2023-02-03T12:52:36;10.90;99.90
8231;DHT22;4156;50.908;6.974;2023-02-03T12:55:31;10.90;99.90
8231;DHT22;4156;50.908;6.974;2023-02-03T13:00:45;10.90;99.90
8231;DHT22;4156;50.908;6.974;2023-02-03T13:06:00;10.90;99.90
8231;DHT22;4156;50.908;6.974;2023-02-03T13:08:45;10.90;99.90
8231;DHT22;4156;50.908;6.974;2023-02-03T13:11:30;10.90;99.90
8231;DHT22;4156;50.908;6.974;2023-02-03T13:14:11;10.90;99.90
8231;DHT22;4156;50.908;6.974;2023-02-03T13:16:41;10.90;99.90
8231;DHT22;4156;50.908;6.974;2023-02-03T13:19:16;10.90;99.90
8231;DHT22;4156;50.908;6.974;2023-02-03T13:21:43;10.90;99.90
8231;DHT22;4156;50.908;6.974;2023-02-03T13:24:10;10.90;99.90
8231;DHT22;4156;50.908;6.974;2023-02-03T13:26:58;10.90;99.90
8231;DHT22;4156;50.908;6.974;2023-02-03T13:35:42;10.90;99.90
8231;DHT22;4156;50.908;6.974;2023-02-03T13:43:31;10.90;99.90
8231;DHT22;4156;50.908;6.974;2023-02-03T13:45:59;10.90;99.90
8231;DHT22;4156;50.908;6.974;2023-02-03T13:48:27;10.90;99.90
8231;DHT22;4156;50.908;6.974;2023-02-03T13:53:41;10.90;99.90
8231;DHT22;4156;50.908;6.974;2023-02-03T13:56:23;10.90;99.90
8231;DHT22;4156;50.908;6.974;2023-02-03T14:01:33;10.90;99.90
8231;DHT22;4156;50.908;6.974;2023-02-03T14:04:08;10.90;99.90
8231;DHT22;4156;50.908;6.974;2023-02-03T14:06:55;10.90;99.90
8231;DHT22;4156;50.908;6.974;2023-02-03T14:09:34;10.90;99.90
8231;DHT22;4156;50.908;6.974;2023-02-03T14:12:19;10.90;99.90
8231;DHT22;4156;50.908;6.974;2023-02-03T14:20:01;10.90;99.90
8231;DHT22;4156;50.908;6.974;2023-02-03T14:22:28;11.00;99.90
8231;DHT22;4156;50.908;6.974;2023-02-03T14:24:55;11.00;99.90
8231;DHT22;4156;50.908;6.974;2023-02-03T14:27:24;11.00;99.90
8231;DHT22;4156;50.908;6.974;2023-02-03T14:30:09;11.00;99.90
8231;DHT22;4156;50.908;6.974;2023-02-03T14:35:22;11.00;99.90
8231;DHT22;4156;50.908;6.974;2023-02-03T14:38:11;11.00;99.90
8231;DHT22;4156;50.908;6.974;2023-02-03T14:40:43;11.00;99.90
8231;DHT22;4156;50.908;6.974;2023-02-03T14:48:40;10.90;99.90
8231;DHT22;4156;50.908;6.974;2023-02-03T14:56:32;11.00;99.90
8231;DHT22;4156;50.908;6.974;2023-02-03T14:59:24;11.00;99.90
8231;DHT22;4156;50.908;6.974;2023-02-03T15:06:45;11.00;99.90
8231;DHT22;4156;50.908;6.974;2023-02-03T15:09:38;11.00;99.90
8231;DHT22;4156;50.908;6.974;2023-02-03T15:12:18;11.00;99.90
8231;DHT22;4156;50.908;6.974;2023-02-03T15:14:46;11.00;99.90
8231;DHT22;4156;50.908;6.974;2023-02-03T15:17:32;11.10;99.90
8231;DHT22;4156;50.908;6.974;2023-02-03T15:19:58;11.10;99.90
8231;DHT22;4156;50.908;6.974;2023-02-03T15:22:28;11.10;99.90
8231;DHT22;4156;50.908;6.974;2023-02-03T15:24:57;11.10;99.90
8231;DHT22;4156;50.908;6.974;2023-02-03T15:27:28;11.10;99.90
8231;DHT22;4156;50.908;6.974;2023-02-03T15:29:53;11.10;99.90
8231;DHT22;4156;50.908;6.974;2023-02-03T15:32:27;11.10;99.90
8231;DHT22;4156;50.908;6.974;2023-02-03T15:34:54;11.10;99.90
8231;DHT22;4156;50.908;6.974;2023-02-03T15:37:31;11.10;99.90
8231;DHT22;4156;50.908;6.974;2023-02-03T15:40:16;11.10;99.90
8231;DHT22;4156;50.908;6.974;2023-02-03T15:42:58;11.10;99.90
8231;DHT22;4156;50.908;6.974;2023-02-03T15:45:31;11.10;99.90
8231;DHT22;4156;50.908;6.974;2023-02-03T15:51:15;11.10;99.90
8231;DHT22;4156;50.908;6.974;2023-02-03T15:53:59;11.10;99.90
8231;DHT22;4156;50.908;6.974;2023-02-03T15:59:02;11.10;99.90
8231;DHT22;4156;50.908;6.974;2023-02-03T16:01:29;11.10;99.90
8231;DHT22;4156;50.908;6.974;2023-02-03T16:03:56;11.10;99.90
8231;DHT22;4156;50.908;6.974;2023-02-03T16:06:34;11.10;99.90
8231;DHT22;4156;50.908;6.974;2023-02-03T16:09:03;11.10;99.90
8231;DHT22;4156;50.908;6.974;2023-02-03T16:11:38;11.10;99.90
8231;DHT22;4156;50.908;6.974;2023-02-03T16:14:07;11.10;99.90
8231;DHT22;4156;50.908;6.974;2023-02-03T16:19:05;11.10;99.90
8231;DHT22;4156;50.908;6.974;2023-02-03T16:21:50;11.10;99.90
8231;DHT22;4156;50.908;6.974;2023-02-03T16:27:20;11.10;99.90
8231;DHT22;4156;50.908;6.974;2023-02-03T16:29:46;11.10;99.90
8231;DHT22;4156;50.908;6.974;2023-02-03T16:32:30;11.10;99.90
8231;DHT22;4156;50.908;6.974;2023-02-03T16:35:14;11.10;99.90
8231;DHT22;4156;50.908;6.974;2023-02-03T16:38:06;11.10;99.90
8231;DHT22;4156;50.908;6.974;2023-02-03T16:40:50;11.10;99.90
8231;DHT22;4156;50.908;6.974;2023-02-03T16:43:34;11.10;99.90
8231;DHT22;4156;50.908;6.974;2023-02-03T16:46:18;11.00;99.90
8231;DHT22;4156;50.908;6.974;2023-02-03T16:49:03;11.00;99.90
8231;DHT22;4156;50.908;6.974;2023-02-03T16:51:47;11.00;99.90
8231;DHT22;4156;50.908;6.974;2023-02-03T16:54:13;11.00;99.90
8231;DHT22;4156;50.908;6.974;2023-02-03T16:56:39;11.00;99.90
8231;DHT22;4156;50.908;6.974;2023-02-03T16:59:05;11.00;99.90
8231;DHT22;4156;50.908;6.974;2023-02-03T17:01:31;11.00;99.90
8231;DHT22;4156;50.908;6.974;2023-02-03T17:03:56;11.00;99.90
8231;DHT22;4156;50.908;6.974;2023-02-03T17:06:22;11.00;99.90
8231;DHT22;4156;50.908;6.974;2023-02-03T17:08:47;11.00;99.90
8231;DHT22;4156;50.908;6.974;2023-02-03T17:11:15;11.00;99.90
8231;DHT22;4156;50.908;6.974;2023-02-03T17:13:41;11.00;99.90
8231;DHT22;4156;50.908;6.974;2023-02-03T17:16:10;11.00;99.90
8231;DHT22;4156;50.908;6.974;2023-02-03T17:18:37;11.00;99.90
8231;DHT22;4156;50.908;6.974;2023-02-03T17:21:05;11.00;99.90
8231;DHT22;4156;50.908;6.974;2023-02-03T17:23:31;11.00;99.90
8231;DHT22;4156;50.908;6.974;2023-02-03T17:25:57;11.00;99.90
8231;DHT22;4156;50.908;6.974;2023-02-03T17:28:22;11.00;99.90
8231;DHT22;4156;50.908;6.974;2023-02-03T17:30:56;11.00;99.90
8231;DHT22;4156;50.908;6.974;2023-02-03T17:33:21;11.00;99.90
8231;DHT22;4156;50.908;6.974;2023-02-03T17:35:59;11.00;99.90
8231;DHT22;4156;50.908;6.974;2023-02-03T17:38:25;11.00;99.90
8231;DHT22;4156;50.908;6.974;2023-02-03T17:40:50;11.00;99.90
8231;DHT22;4156;50.908;6.974;2023-02-03T17:43:16;11.00;99.90
8231;DHT22;4156;50.908;6.974;2023-02-03T17:45:41;11.00;99.90
8231;DHT22;4156;50.908;6.974;2023-02-03T17:48:07;11.00;99.90
8231;DHT22;4156;50.908;6.974;2023-02-03T17:50:33;11.00;99.90
8231;DHT22;4156;50.908;6.974;2023-02-03T17:52:59;11.00;99.90
8231;DHT22;4156;50.908;6.974;2023-02-03T17:55:24;11.00;99.90
8231;DHT22;4156;50.908;6.974;2023-02-03T17:57:50;11.00;99.90
8231;DHT22;4156;50.908;6.974;2023-02-03T18:00:16;11.00;99.90
8231;DHT22;4156;50.908;6.974;2023-02-03T18:02:42;11.00;99.90
8231;DHT22;4156;50.908;6.974;2023-02-03T18:05:07;10.90;99.90
8231;DHT22;4156;50.908;6.974;2023-02-03T18:07:33;10.90;99.90
8231;DHT22;4156;50.908;6.974;2023-02-03T18:09:59;10.90;99.90
8231;DHT22;4156;50.908;6.974;2023-02-03T18:12:24;10.90;99.90
8231;DHT22;4156;50.908;6.974;2023-02-03T18:14:50;10.90;99.90
8231;DHT22;4156;50.908;6.974;2023-02-03T18:17:15;10.90;99.90
8231;DHT22;4156;50.908;6.974;2023-02-03T18:19:41;10.90;99.90
8231;DHT22;4156;50.908;6.974;2023-02-03T18:22:06;10.90;99.90